Time;durP1;ratioP1;P1;durP2;ratioP2;P2;SDS_P1;SDS_P2;PMS_P1;PMS_P2;Temp;Humidity;BMP_temperature;BMP_pressure;BME280_temperature;BME280_humidity;BME280_pressure;Samples;Min_cycle;Max_cycle;Signal;HPM_P1;HPM_P2
2022/06/25 00:00:30;;;;;;;0.30;0.30;;;;;;;9.35;100.00;98944.69;4996122;28;20030;-82
2022/06/25 00:02:56;;;;;;;0.30;0.30;;;;;;;9.39;100.00;98942.41;4957775;28;20369;-82
2022/06/25 00:05:28;;;;;;;0.30;0.30;;;;;;;9.36;100.00;98945.53;4978498;28;20078;-82
2022/06/25 00:07:55;;;;;;;0.30;0.30;;;;;;;9.36;100.00;98943.66;4954850;28;20566;-80
2022/06/25 00:10:21;;;;;;;0.30;0.30;;;;;;;9.35;100.00;98941.19;4987945;28;20038;-81
2022/06/25 00:12:47;;;;;;;0.30;0.30;;;;;;;9.29;100.00;98944.72;4982312;28;20058;-82
2022/06/25 00:15:12;;;;;;;0.28;0.28;;;;;;;9.29;100.00;98950.06;4973641;28;20290;-82
2022/06/25 00:17:38;;;;;;;0.20;0.20;;;;;;;9.25;100.00;98942.47;4966679;28;20022;-81
2022/06/25 00:20:04;;;;;;;0.30;0.30;;;;;;;9.25;100.00;98955.06;4991478;28;20040;-83
2022/06/25 00:22:30;;;;;;;0.30;0.30;;;;;;;9.11;100.00;98935.50;4984646;28;20036;-83
2022/06/25 00:24:58;;;;;;;0.30;0.30;;;;;;;9.21;100.00;98959.22;4975307;28;20034;-81
2022/06/25 00:27:24;;;;;;;0.50;0.50;;;;;;;9.14;100.00;98951.16;4968091;28;20034;-81
2022/06/25 00:29:49;;;;;;;0.30;0.30;;;;;;;9.19;100.00;98954.03;4965557;28;20041;-81
2022/06/25 00:32:15;;;;;;;0.30;0.30;;;;;;;9.20;100.00;98961.03;4970857;28;20314;-82
2022/06/25 00:34:41;;;;;;;0.30;0.30;;;;;;;9.23;100.00;98963.31;4952866;28;20046;-82
2022/06/25 00:37:07;;;;;;;0.30;0.30;;;;;;;9.27;100.00;98973.63;4989655;28;20398;-81
2022/06/25 00:39:33;;;;;;;0.30;0.30;;;;;;;9.28;100.00;98975.25;4969997;28;20069;-85
2022/06/25 00:41:59;;;;;;;0.30;0.30;;;;;;;9.28;100.00;98975.25;4986220;28;20043;-80
2022/06/25 00:44:29;;;;;;;0.30;0.30;;;;;;;9.28;100.00;98975.25;4967154;28;20117;-84
2022/06/25 00:46:54;;;;;;;0.30;0.30;;;;;;;9.23;100.00;98966.00;4954790;28;20040;-81
2022/06/25 00:49:20;;;;;;;0.30;0.30;;;;;;;9.28;100.00;98969.91;4987746;28;20034;-80
2022/06/25 00:51:47;;;;;;;0.30;0.30;;;;;;;9.25;100.00;98971.16;4979456;28;20118;-81
2022/06/25 00:54:13;;;;;;;0.20;0.20;;;;;;;9.23;100.00;98966.00;4967682;28;20035;-83
2022/06/25 00:56:46;;;;;;;0.35;0.35;;;;;;;9.20;100.00;98965.59;4962482;28;20056;-83
2022/06/25 00:59:18;;;;;;;0.30;0.30;;;;;;;9.15;100.00;98966.22;4956503;28;20488;-84
2022/06/25 01:01:44;;;;;;;0.30;0.30;;;;;;;9.12;100.00;98971.19;4989912;28;20034;-82
2022/06/25 01:04:09;;;;;;;0.38;0.38;;;;;;;9.07;100.00;98979.03;4982916;28;20047;-84
2022/06/25 01:06:36;;;;;;;0.30;0.30;;;;;;;8.96;100.00;98969.78;4981265;28;20045;-82
2022/06/25 01:09:01;;;;;;;0.30;0.30;;;;;;;8.87;100.00;98973.72;4957018;28;20057;-83
2022/06/25 01:11:27;;;;;;;0.30;0.30;;;;;;;8.66;100.00;98956.84;4973066;28;20038;-82
2022/06/25 01:13:53;;;;;;;0.30;0.30;;;;;;;8.77;100.00;98980.31;4967507;28;20038;-82
2022/06/25 01:16:22;;;;;;;0.30;0.30;;;;;;;8.74;100.00;98971.88;4990119;28;20031;-82
2022/06/25 01:18:48;;;;;;;0.30;0.30;;;;;;;8.75;100.00;98968.97;4984603;28;20034;-81
2022/06/25 01:21:14;;;;;;;0.30;0.30;;;;;;;8.73;100.00;98968.38;4964240;28;20372;-82
2022/06/25 01:23:40;;;;;;;0.30;0.30;;;;;;;8.78;100.00;98973.09;4984876;28;20034;-81
2022/06/25 01:26:06;;;;;;;0.30;0.30;;;;;;;8.83;100.00;98977.84;4971449;28;20026;-81
2022/06/25 01:28:31;;;;;;;0.30;0.30;;;;;;;8.83;100.00;98975.16;4982504;28;20049;-83
2022/06/25 01:30:57;;;;;;;0.30;0.30;;;;;;;8.87;100.00;98979.06;4958520;28;20026;-82
2022/06/25 01:33:23;;;;;;;0.30;0.30;;;;;;;8.83;100.00;98967.94;4987319;28;20038;-86
2022/06/25 01:35:48;;;;;;;0.30;0.30;;;;;;;8.89;100.00;98977.00;4975660;28;20084;-82
2022/06/25 01:38:14;;;;;;;0.88;0.40;;;;;;;8.89;100.00;98985.88;4970346;28;20048;-81
2022/06/25 01:40:39;;;;;;;0.30;0.30;;;;;;;8.89;100.00;98983.19;4968974;28;20043;-85
2022/06/25 01:43:05;;;;;;;0.30;0.30;;;;;;;8.85;100.00;98990.00;4972078;28;20040;-84
2022/06/25 01:45:36;;;;;;;0.30;0.30;;;;;;;8.82;100.00;98989.59;4974131;28;20121;-83
2022/06/25 01:48:03;;;;;;;0.30;0.30;;;;;;;8.78;100.00;98981.94;4970086;28;20045;-83
2022/06/25 01:50:30;;;;;;;0.30;0.30;;;;;;;8.75;100.00;98986.91;4956121;28;20039;-83
2022/06/25 01:52:55;;;;;;;0.30;0.30;;;;;;;8.75;100.00;98989.59;4971300;28;20030;-84
2022/06/25 01:55:21;;;;;;;0.30;0.30;;;;;;;8.69;100.00;98975.16;4984995;28;21296;-82
2022/06/25 01:57:48;;;;;;;0.30;0.30;;;;;;;8.76;100.00;98986.72;4970731;28;20066;-82
2022/06/25 02:00:19;;;;;;;0.30;0.30;;;;;;;8.75;100.00;98986.91;4988015;28;20129;-84
2022/06/25 02:02:47;;;;;;;0.30;0.30;;;;;;;8.73;100.00;98995.16;4977309;28;20057;-81
2022/06/25 02:05:14;;;;;;;0.30;0.30;;;;;;;8.74;100.00;98991.44;4985494;28;20483;-83
2022/06/25 02:07:40;;;;;;;0.30;0.30;;;;;;;8.73;100.00;98992.50;4961425;28;20030;-83
2022/06/25 02:10:07;;;;;;;0.40;0.40;;;;;;;8.72;100.00;98987.31;4972355;28;20042;-82
2022/06/25 02:12:33;;;;;;;0.30;0.30;;;;;;;8.68;100.00;98984.25;4956271;28;20050;-80
2022/06/25 02:14:59;;;;;;;0.30;0.30;;;;;;;8.66;100.00;98986.31;4988747;28;20035;-81
2022/06/25 02:17:24;;;;;;;0.32;0.32;;;;;;;8.63;100.00;98993.94;4969901;28;20107;-82
2022/06/25 02:19:50;;;;;;;0.30;0.30;;;;;;;8.61;100.00;98986.09;4969288;28;20046;-84
2022/06/25 02:22:15;;;;;;;0.30;0.30;;;;;;;8.57;100.00;98990.19;4986106;28;20034;-83
2022/06/25 02:24:42;;;;;;;0.30;0.30;;;;;;;8.52;100.00;98992.69;4951091;28;20043;-84
2022/06/25 02:27:08;;;;;;;0.40;0.40;;;;;;;8.48;100.00;98989.59;4987610;28;20026;-84
2022/06/25 02:29:34;;;;;;;0.30;0.30;;;;;;;8.45;100.00;98986.50;4985144;28;20407;-84
2022/06/25 02:31:59;;;;;;;0.30;0.30;;;;;;;8.42;100.00;98984.25;4969112;28;20138;-82
2022/06/25 02:34:25;;;;;;;0.30;0.30;;;;;;;8.39;100.00;98977.44;4970191;28;20483;-83
2022/06/25 02:36:51;;;;;;;0.30;0.30;;;;;;;8.40;100.00;98978.25;4979480;28;20035;-84
2022/06/25 02:39:17;;;;;;;0.30;0.30;;;;;;;8.37;100.00;98984.81;4981074;28;20129;-83
2022/06/25 02:41:46;;;;;;;0.30;0.30;;;;;;;8.35;100.00;98985.00;4967724;28;20041;-83
2022/06/25 02:44:12;;;;;;;0.35;0.35;;;;;;;8.30;100.00;98979.44;4984047;28;20038;-83
2022/06/25 02:46:37;;;;;;;0.30;0.30;;;;;;;8.29;100.00;98980.50;4988982;28;20056;-83
2022/06/25 02:49:03;;;;;;;0.30;0.30;;;;;;;8.28;100.00;98976.19;4967419;28;20073;-83
2022/06/25 02:51:29;;;;;;;0.30;0.30;;;;;;;8.22;100.00;98976.16;4975027;28;20377;-82
2022/06/25 02:53:55;;;;;;;0.30;0.30;;;;;;;8.29;100.00;98974.31;4981885;28;20093;-83
2022/06/25 02:59:06;;;;;;;0.30;0.30;;;;;;;8.26;100.00;98975.56;4968617;28;20100;-85
2022/06/25 03:01:32;;;;;;;0.30;0.30;;;;;;;8.31;100.00;98991.81;4983936;28;20489;-84
2022/06/25 03:03:59;;;;;;;0.30;0.30;;;;;;;8.28;100.00;98986.88;4954482;28;20129;-82
2022/06/25 03:06:24;;;;;;;0.30;0.30;;;;;;;8.28;100.00;98986.88;4983701;28;20041;-81
2022/06/25 03:08:50;;;;;;;0.30;0.30;;;;;;;8.30;100.00;98992.84;4970027;28;20133;-80
2022/06/25 03:11:17;;;;;;;0.30;0.30;;;;;;;8.23;100.00;98970.59;4964394;28;20162;-81
2022/06/25 03:13:42;;;;;;;0.65;0.50;;;;;;;8.31;100.00;98991.81;4976994;28;20045;-84
2022/06/25 03:16:08;;;;;;;0.30;0.30;;;;;;;8.34;100.00;98991.41;4967302;28;20038;-83
2022/06/25 03:18:35;;;;;;;0.30;0.30;;;;;;;8.36;100.00;98984.00;4963729;28;20039;-84
2022/06/25 03:21:01;;;;;;;0.43;0.35;;;;;;;8.30;100.00;98975.94;4988137;28;20038;-83
2022/06/25 03:23:27;;;;;;;0.57;0.47;;;;;;;8.41;100.00;98986.06;4965331;28;20031;-81
2022/06/25 03:25:53;;;;;;;0.30;0.30;;;;;;;8.41;100.00;98986.06;4989295;28;20392;-84
2022/06/25 03:28:19;;;;;;;0.30;0.30;;;;;;;8.43;100.00;98985.88;4970081;28;20030;-80
2022/06/25 03:30:45;;;;;;;0.30;0.30;;;;;;;8.37;100.00;98974.94;4962459;28;20034;-81
2022/06/25 03:33:12;;;;;;;0.40;0.40;;;;;;;8.38;100.00;98981.09;4977924;28;20042;-84
2022/06/25 03:35:39;;;;;;;0.40;0.40;;;;;;;8.37;100.00;98982.16;4965863;28;20054;-82
2022/06/25 03:38:04;;;;;;;0.30;0.30;;;;;;;8.33;100.00;98972.84;4950860;28;20051;-82
2022/06/25 03:40:30;;;;;;;0.30;0.30;;;;;;;8.32;100.00;98977.41;4955904;28;20129;-83
2022/06/25 03:42:56;;;;;;;0.30;0.30;;;;;;;8.32;100.00;98979.25;4967627;28;20042;-80
2022/06/25 03:45:22;;;;;;;0.40;0.40;;;;;;;8.40;100.00;98995.16;4985812;28;20050;-82
2022/06/25 03:47:50;;;;;;;0.40;0.40;;;;;;;8.36;100.00;98985.84;4950895;28;20042;-81
2022/06/25 03:50:20;;;;;;;0.30;0.30;;;;;;;8.37;100.00;98999.03;4960746;28;20468;-82
2022/06/25 03:52:47;;;;;;;0.30;0.30;;;;;;;8.34;100.00;98994.09;4955361;28;20042;-82
2022/06/25 03:55:14;;;;;;;0.30;0.30;;;;;;;8.31;100.00;98989.16;4954012;28;20031;-81
2022/06/25 03:57:39;;;;;;;0.30;0.30;;;;;;;8.31;100.00;98989.16;4954611;28;20038;-80
2022/06/25 04:00:06;;;;;;;0.47;0.40;;;;;;;8.28;100.00;98978.00;4965613;28;20149;-82
2022/06/25 04:02:33;;;;;;;0.40;0.40;;;;;;;8.28;100.00;98989.56;4981823;28;20497;-83
2022/06/25 04:04:59;;;;;;;0.50;0.50;;;;;;;8.25;100.00;98989.94;4977746;28;20035;-80
2022/06/25 04:07:24;;;;;;;0.50;0.50;;;;;;;8.24;100.00;98990.16;4974793;28;20054;-81
2022/06/25 04:09:50;;;;;;;0.30;0.30;;;;;;;8.19;100.00;98981.91;4971224;28;20108;-83
2022/06/25 04:12:16;;;;;;;0.30;0.30;;;;;;;8.15;100.00;98981.50;4976720;28;20407;-83
2022/06/25 04:14:41;;;;;;;0.30;0.30;;;;;;;8.13;100.00;98980.88;4970967;28;20077;-81
2022/06/25 04:17:07;;;;;;;0.32;0.32;;;;;;;8.09;100.00;98987.66;4990425;28;20046;-84
2022/06/25 04:19:39;;;;;;;0.40;0.40;;;;;;;8.06;100.00;98985.41;4982399;28;20026;-83
2022/06/25 04:22:09;;;;;;;0.40;0.40;;;;;;;8.06;100.00;98982.72;4966442;28;20499;-85
2022/06/25 04:24:38;;;;;;;0.30;0.30;;;;;;;8.09;100.00;98976.94;4962842;28;20054;-81
2022/06/25 04:27:04;;;;;;;1.55;0.40;;;;;;;8.11;100.00;98980.25;4978444;28;20038;-84
2022/06/25 04:29:30;;;;;;;0.30;0.30;;;;;;;8.08;100.00;98972.63;4965390;28;20049;-81
2022/06/25 04:31:56;;;;;;;2.17;0.47;;;;;;;8.11;100.00;98978.41;4954235;28;20089;-84
2022/06/25 04:34:22;;;;;;;0.35;0.35;;;;;;;8.22;100.00;98982.31;4980982;28;20493;-81
2022/06/25 04:36:48;;;;;;;0.30;0.30;;;;;;;8.28;100.00;98978.84;4972074;28;20042;-83
2022/06/25 04:39:13;;;;;;;0.30;0.30;;;;;;;8.31;100.00;98986.47;4959634;28;20482;-83
2022/06/25 04:41:39;;;;;;;0.30;0.30;;;;;;;8.34;100.00;98978.03;4988486;28;20102;-82
2022/06/25 04:44:05;;;;;;;0.38;0.38;;;;;;;8.20;100.00;98960.28;4956507;28;20383;-84
2022/06/25 04:46:31;;;;;;;0.30;0.30;;;;;;;8.33;100.00;98975.53;4987609;28;20041;-83
2022/06/25 04:48:57;;;;;;;0.32;0.32;;;;;;;8.27;100.00;98969.16;4986112;28;20038;-84
2022/06/25 04:51:22;;;;;;;0.40;0.40;;;;;;;8.33;100.00;98983.56;4975240;28;20034;-85
2022/06/25 04:53:57;;;;;;;0.40;0.40;;;;;;;8.37;100.00;98980.28;4988069;28;20411;-85
2022/06/25 04:56:28;;;;;;;0.30;0.30;;;;;;;8.41;100.00;98969.19;4969823;28;20038;-84
2022/06/25 04:58:55;;;;;;;1.00;0.50;;;;;;;8.50;100.00;98978.69;4970818;28;20037;-80
2022/06/25 05:01:20;;;;;;;0.43;0.40;;;;;;;8.56;100.00;98983.22;4982775;28;20088;-83
2022/06/25 05:03:46;;;;;;;0.30;0.30;;;;;;;8.58;100.00;98976.63;4954542;28;20035;-83
2022/06/25 05:06:13;;;;;;;0.40;0.40;;;;;;;8.59;100.00;98980.94;4991248;28;20103;-81
2022/06/25 05:08:39;;;;;;;0.40;0.40;;;;;;;8.61;100.00;98975.38;4985533;28;20078;-82
2022/06/25 05:11:04;;;;;;;0.40;0.40;;;;;;;8.54;100.00;98980.72;4967691;28;20073;-82
2022/06/25 05:13:30;;;;;;;0.40;0.40;;;;;;;8.53;100.00;98988.97;4987455;28;20030;-82
2022/06/25 05:15:56;;;;;;;0.52;0.52;;;;;;;8.47;100.00;98977.25;4984007;28;20308;-83
2022/06/25 05:18:21;;;;;;;0.60;0.60;;;;;;;8.48;100.00;98991.44;4986347;28;20402;-85
2022/06/25 05:20:47;;;;;;;0.43;0.43;;;;;;;8.51;100.00;98991.84;4987425;28;20373;-83
2022/06/25 05:23:13;;;;;;;3.33;0.93;;;;;;;8.56;100.00;98983.22;4980795;28;20061;-81
2022/06/25 05:25:44;;;;;;;0.65;0.60;;;;;;;8.66;100.00;98983.63;4946203;28;20062;-82
2022/06/25 05:28:10;;;;;;;0.50;0.50;;;;;;;8.68;100.00;98981.56;4975728;28;20034;-82
2022/06/25 05:30:36;;;;;;;1.75;1.08;;;;;;;8.76;100.00;98993.94;4972741;28;20535;-81
2022/06/25 05:33:02;;;;;;;1.67;0.65;;;;;;;8.75;100.00;98973.50;4960338;28;20480;-82
2022/06/25 05:35:28;;;;;;;0.60;0.60;;;;;;;8.93;100.00;98995.13;4959834;28;20042;-84
2022/06/25 05:37:54;;;;;;;0.45;0.45;;;;;;;9.08;100.00;98991.41;4979469;28;20088;-80
2022/06/25 05:40:19;;;;;;;0.52;0.40;;;;;;;9.02;100.00;98951.00;5004203;28;20039;-82
2022/06/25 05:42:45;;;;;;;0.75;0.65;;;;;;;9.34;100.00;98991.34;4971359;28;20436;-80
2022/06/25 05:45:11;;;;;;;1.00;0.65;;;;;;;9.81;100.00;98991.97;4995996;28;20125;-84
2022/06/25 05:47:38;;;;;;;0.70;0.70;;;;;;;10.60;100.00;98997.91;4986685;28;20068;-83
2022/06/25 05:50:04;;;;;;;0.50;0.50;;;;;;;10.71;100.00;98991.00;4989648;28;20035;-82
2022/06/25 05:52:29;;;;;;;0.45;0.45;;;;;;;10.66;100.00;98999.69;4973885;28;20309;-84
2022/06/25 05:54:55;;;;;;;0.32;0.32;;;;;;;10.57;100.00;98995.66;4968378;28;20561;-81
2022/06/25 05:57:21;;;;;;;0.40;0.40;;;;;;;10.27;100.00;98985.53;4992401;28;20085;-83
2022/06/25 05:59:46;;;;;;;0.73;0.73;;;;;;;10.04;100.00;98978.00;4973484;28;20038;-82
2022/06/25 06:02:12;;;;;;;1.00;1.00;;;;;;;9.87;100.00;98979.53;4973059;28;20053;-82
2022/06/25 06:04:38;;;;;;;0.60;0.60;;;;;;;9.84;100.00;98986.19;4954913;28;20108;-83
2022/06/25 06:07:05;;;;;;;0.52;0.40;;;;;;;9.63;100.00;98986.47;4989230;28;20042;-82
2022/06/25 06:09:32;;;;;;;1.17;0.50;;;;;;;9.59;100.00;98994.13;4972533;28;20095;-82
2022/06/25 06:11:58;;;;;;;0.47;0.47;;;;;;;9.53;100.00;98983.44;4970273;28;20560;-83
2022/06/25 06:14:24;;;;;;;0.50;0.50;;;;;;;9.61;100.00;98986.69;4975575;28;20120;-85
2022/06/25 06:16:50;;;;;;;0.40;0.40;;;;;;;9.63;100.00;98981.97;4977660;28;20450;-82
2022/06/25 06:19:16;;;;;;;0.55;0.55;;;;;;;9.45;100.00;98982.63;4970008;28;20030;-82
2022/06/25 06:21:42;;;;;;;0.30;0.30;;;;;;;9.25;100.00;98995.28;4988729;28;20440;-83
2022/06/25 06:24:07;;;;;;;0.38;0.38;;;;;;;9.11;100.00;98994.50;4991086;28;20076;-83
2022/06/25 06:26:34;;;;;;;0.80;0.45;;;;;;;9.00;100.00;98995.97;4989921;28;20064;-82
2022/06/25 06:28:59;;;;;;;0.40;0.40;;;;;;;9.05;100.00;98989.97;4983365;28;20038;-85
2022/06/25 06:31:25;;;;;;;0.38;0.38;;;;;;;9.01;100.00;98994.09;4971224;28;20033;-82
2022/06/25 06:33:51;;;;;;;0.50;0.50;;;;;;;8.88;100.00;99002.97;4957277;28;20129;-80
2022/06/25 06:36:16;;;;;;;0.40;0.40;;;;;;;8.83;100.00;99010.00;4951617;28;20524;-83
2022/06/25 06:38:42;;;;;;;0.63;0.52;;;;;;;8.90;100.00;99010.81;4971579;28;20555;-81
2022/06/25 06:41:08;;;;;;;0.40;0.40;;;;;;;9.01;100.00;99000.28;4972838;28;20113;-83
2022/06/25 06:43:34;;;;;;;1.38;0.70;;;;;;;9.32;100.00;99011.38;4964247;28;20502;-83
2022/06/25 06:45:59;;;;;;;1.17;0.70;;;;;;;9.50;100.00;99008.84;4952215;28;20049;-83
2022/06/25 06:48:25;;;;;;;0.60;0.50;;;;;;;9.68;100.00;99016.19;4970574;28;20102;-81
2022/06/25 06:50:51;;;;;;;2.05;0.60;;;;;;;9.86;100.00;99002.06;4974578;28;20488;-82
2022/06/25 06:53:31;;;;;;;2.75;0.70;;;;;;;10.11;100.00;99004.84;4985351;28;20645;-83
2022/06/25 06:56:16;;;;;;;0.73;0.73;;;;;;;10.32;100.00;99001.03;4963128;28;20042;-84
2022/06/25 06:58:43;;;;;;;0.80;0.80;;;;;;;10.65;100.00;99016.06;4981627;28;20022;-81
2022/06/25 07:01:25;;;;;;;0.50;0.50;;;;;;;10.93;100.00;99005.69;4984315;28;20027;-83
2022/06/25 07:03:53;;;;;;;0.40;0.40;;;;;;;10.91;100.00;99013.16;4959358;28;20089;-83
2022/06/25 07:06:19;;;;;;;0.90;0.75;;;;;;;10.70;100.00;99016.22;4954484;28;20061;-81
2022/06/25 07:08:44;;;;;;;5.18;1.25;;;;;;;10.54;100.00;98993.41;4968008;28;20594;-81
2022/06/25 07:11:32;;;;;;;0.40;0.40;;;;;;;10.72;100.00;99011.47;4968830;28;20096;-84
2022/06/25 07:14:13;;;;;;;0.55;0.45;;;;;;;10.76;100.00;99001.91;4967623;28;20404;-82
2022/06/25 07:16:40;;;;;;;2.70;0.90;;;;;;;10.86;100.00;99002.22;4967958;28;20133;-84
2022/06/25 07:19:12;;;;;;;0.90;0.50;;;;;;;11.25;100.00;99007.47;4952139;28;20333;-84
2022/06/25 07:25:49;;;;;;;1.00;0.80;;;;;;;11.30;100.00;98994.97;4922990;28;20035;-82
2022/06/25 07:28:35;;;;;;;1.13;1.05;;;;;;;11.27;100.00;98995.41;4910597;28;20043;-83
2022/06/25 07:31:58;;;;;;;0.30;0.30;;;;;;;11.38;100.00;99001.94;4964772;28;20042;-82
2022/06/25 07:34:28;;;;;;;0.55;0.55;;;;;;;10.85;100.00;98964.81;4951099;28;20049;-83
2022/06/25 07:36:58;;;;;;;0.73;0.70;;;;;;;10.84;100.00;98973.91;4983883;28;20034;-82
2022/06/25 07:39:55;;;;;;;0.55;0.55;;;;;;;11.06;100.00;99014.66;4955629;28;20480;-83
2022/06/25 07:47:19;;;;;;;;;;;;;;;;;;;;;
2022/06/25 07:53:13;;;;;;;0.55;0.55;;;;;;;12.52;100.00;98972.44;4981450;28;20064;-84
2022/06/25 07:55:42;;;;;;;0.75;0.65;;;;;;;13.29;100.00;99006.63;4965358;28;20097;-83
2022/06/25 07:58:08;;;;;;;0.60;0.60;;;;;;;13.83;100.00;99013.44;4962628;28;20081;-82
2022/06/25 08:00:33;;;;;;;1.77;0.80;;;;;;;13.68;99.26;99002.34;4973032;28;20117;-83
2022/06/25 08:02:59;;;;;;;0.60;0.60;;;;;;;13.48;100.00;99015.41;4986162;28;20038;-85
2022/06/25 08:05:25;;;;;;;1.30;0.82;;;;;;;13.12;100.00;99011.88;4954226;28;20492;-84
2022/06/25 08:07:51;;;;;;;2.03;0.90;;;;;;;13.09;100.00;99013.16;4952677;28;20038;-84
2022/06/25 08:10:17;;;;;;;1.02;0.70;;;;;;;13.15;100.00;99020.34;4948646;28;20041;-87
2022/06/25 08:12:43;;;;;;;2.10;1.20;;;;;;;13.15;100.00;99022.19;4985419;28;20038;-86
2022/06/25 08:15:10;;;;;;;6.05;0.90;;;;;;;12.60;100.00;99019.81;4990567;28;20593;-81
2022/06/25 08:17:36;;;;;;;1.67;1.20;;;;;;;12.31;100.00;99027.72;4988060;28;20490;-85
2022/06/25 08:20:02;;;;;;;2.40;1.23;;;;;;;12.09;100.00;99022.84;4968788;28;20042;-84
2022/06/25 08:22:28;;;;;;;3.75;1.48;;;;;;;11.98;100.00;99020.06;4992790;28;20061;-87
2022/06/25 08:24:53;;;;;;;5.60;1.70;;;;;;;12.13;100.00;99017.81;4956725;28;20077;-85
2022/06/25 08:27:19;;;;;;;2.92;1.65;;;;;;;12.50;100.00;99020.38;4957210;28;20077;-85
2022/06/25 08:29:46;;;;;;;4.57;1.40;;;;;;;12.74;100.00;99032.03;4963028;28;20685;-83
2022/06/25 08:32:11;;;;;;;3.05;1.50;;;;;;;12.85;100.00;99017.72;4973717;28;20093;-86
2022/06/25 08:34:37;;;;;;;2.22;1.23;;;;;;;13.25;98.55;99029.72;4993047;28;20038;-85
2022/06/25 08:37:04;;;;;;;4.50;1.30;;;;;;;13.92;94.95;99032.81;4977382;28;20038;-85
2022/06/25 08:39:30;;;;;;;3.30;1.67;;;;;;;15.33;88.49;99031.97;4984866;28;20056;-86
2022/06/25 08:41:56;;;;;;;3.35;1.27;;;;;;;16.27;83.27;99020.16;4986336;28;20088;-86
2022/06/25 08:44:22;;;;;;;4.03;1.20;;;;;;;15.51;84.79;99024.66;4967279;28;20187;-82
2022/06/25 08:46:48;;;;;;;2.90;1.55;;;;;;;15.06;86.73;99021.03;4985211;28;20038;-87
2022/06/25 08:49:15;;;;;;;2.85;1.60;;;;;;;15.15;84.73;99027.66;4972398;28;20038;-86
2022/06/25 08:51:43;;;;;;;3.20;1.35;;;;;;;15.22;84.75;99022.06;4955190;28;20114;-85
2022/06/25 08:54:10;;;;;;;1.90;1.20;;;;;;;15.44;83.84;99026.72;4975803;28;20397;-82
2022/06/25 08:56:35;;;;;;;4.05;1.55;;;;;;;15.94;81.71;99020.34;4986821;28;20026;-89
2022/06/25 08:59:02;;;;;;;6.43;2.10;;;;;;;16.84;77.26;99009.84;4967606;28;20043;-83
2022/06/25 09:01:27;;;;;;;3.88;1.77;;;;;;;17.31;76.47;99018.03;4966925;28;20555;-83
2022/06/25 09:03:53;;;;;;;3.72;1.38;;;;;;;17.57;73.07;99015.44;4991633;28;20129;-85
2022/06/25 09:06:21;;;;;;;3.78;1.90;;;;;;;17.39;72.74;99019.44;4960750;28;20353;-87
2022/06/25 09:09:09;;;;;;;3.22;1.50;;;;;;;16.47;74.06;99032.28;4992925;28;20406;-85
2022/06/25 09:11:57;;;;;;;2.08;1.50;;;;;;;15.75;80.02;99009.00;4975023;28;20038;-88
2022/06/25 09:14:30;;;;;;;2.85;1.77;;;;;;;15.11;83.31;99017.56;4990812;28;20030;-87
2022/06/25 09:17:01;;;;;;;4.13;1.88;;;;;;;14.64;85.73;99002.50;4992948;28;20526;-87
2022/06/25 09:19:32;;;;;;;4.50;2.13;;;;;;;14.45;88.72;99018.13;4976611;28;20042;-90
2022/06/25 09:21:59;;;;;;;3.17;1.77;;;;;;;14.16;89.92;99021.91;4989169;28;20118;-86
2022/06/25 09:24:57;;;;;;;9.35;2.83;;;;;;;14.19;91.53;99018.72;4962288;28;20534;-91
2022/06/25 09:27:33;;;;;;;9.18;2.80;;;;;;;13.93;91.77;99026.31;4974539;28;20507;-91
2022/06/25 09:30:08;;;;;;;5.78;2.80;;;;;;;13.75;91.57;99010.28;4974861;28;20033;-89
2022/06/25 09:32:46;;;;;;;5.03;2.30;;;;;;;13.73;92.09;99024.03;4976372;28;20369;-87
2022/06/25 09:35:13;;;;;;;4.97;2.20;;;;;;;13.57;92.17;99012.09;4992893;28;20085;-89
2022/06/25 09:37:39;;;;;;;3.45;2.25;;;;;;;13.40;91.12;99012.00;4974913;28;20515;-82
2022/06/25 09:40:06;;;;;;;3.80;1.27;;;;;;;13.29;91.80;99014.72;4984343;28;20030;-82
2022/06/25 09:42:33;;;;;;;2.53;1.40;;;;;;;13.17;87.76;99018.19;4986272;28;20041;-82
2022/06/25 09:45:06;;;;;;;2.95;1.55;;;;;;;13.28;88.28;99003.09;4955938;28;20395;-82
2022/06/25 09:47:43;;;;;;;4.53;1.70;;;;;;;13.75;81.65;98999.47;4958526;28;20113;-83
2022/06/25 09:50:10;;;;;;;4.68;1.50;;;;;;;13.92;78.76;99010.34;4955065;28;20038;-83
2022/06/25 09:52:59;;;;;;;2.13;1.30;;;;;;;14.04;76.69;99013.84;4951598;28;20427;-83
2022/06/25 09:55:29;;;;;;;2.92;1.33;;;;;;;14.19;75.42;99007.91;4985400;28;20081;-83
2022/06/25 09:58:06;;;;;;;5.72;2.28;;;;;;;14.62;72.18;99017.34;4988898;28;20044;-82
2022/06/25 10:00:33;;;;;;;2.47;0.93;;;;;;;14.75;72.16;99018.91;4974671;28;20054;-83
2022/06/25 10:03:01;;;;;;;2.78;1.00;;;;;;;14.64;72.89;99016.03;4965077;28;20027;-83
2022/06/25 10:05:32;;;;;;;3.17;1.35;;;;;;;14.71;70.19;99005.03;4980623;28;20393;-83
2022/06/25 10:07:59;;;;;;;4.53;1.45;;;;;;;14.51;70.88;99019.03;4965434;28;20074;-83
2022/06/25 10:10:27;;;;;;;3.08;1.42;;;;;;;14.34;70.22;99004.63;4975963;28;20034;-83
2022/06/25 10:12:54;;;;;;;3.10;1.27;;;;;;;14.21;70.12;98987.69;4970933;28;20034;-83
2022/06/25 10:18:36;;;;;;;1.63;0.88;;;;;;;15.46;67.61;99008.31;4979506;28;20046;-83
2022/06/25 10:21:02;;;;;;;3.90;1.23;;;;;;;15.69;64.22;98970.19;4984902;28;20057;-84
2022/06/25 10:23:28;;;;;;;3.72;1.30;;;;;;;16.09;63.16;98979.00;4982685;28;20038;-83
2022/06/25 10:25:54;;;;;;;2.03;1.17;;;;;;;16.34;62.45;99014.53;4970522;28;20488;-85
2022/06/25 10:28:26;;;;;;;2.35;1.42;;;;;;;16.22;61.91;98987.56;5002641;28;20034;-84
2022/06/25 10:30:56;;;;;;;2.65;1.55;;;;;;;16.09;61.41;98974.41;4955492;28;20138;-83
2022/06/25 10:33:23;;;;;;;3.33;1.65;;;;;;;16.17;61.17;98998.34;4996222;28;20113;-84
2022/06/25 10:35:51;;;;;;;2.17;1.20;;;;;;;16.03;63.32;98997.09;4973358;28;21324;-83
2022/06/25 10:38:21;;;;;;;4.07;1.20;;;;;;;15.92;62.47;98996.19;4988675;28;20037;-83
2022/06/25 10:40:48;;;;;;;3.03;1.20;;;;;;;15.95;62.44;98997.56;4984320;28;20039;-84
2022/06/25 10:43:43;;;;;;;2.63;1.08;;;;;;;16.08;62.03;99026.19;4987507;28;20034;-83
2022/06/25 10:46:36;;;;;;;1.65;1.00;;;;;;;16.06;60.98;99018.28;4968877;28;20069;-84
2022/06/25 10:49:13;;;;;;;2.30;1.17;;;;;;;16.12;61.59;99017.28;4959422;28;20038;-82
2022/06/25 10:51:51;;;;;;;2.22;1.10;;;;;;;16.48;60.67;99012.19;4983132;28;20587;-82
2022/06/25 10:54:24;;;;;;;1.75;1.15;;;;;;;16.79;58.16;98988.09;4984111;28;20144;-85
2022/06/25 10:56:58;;;;;;;1.10;0.98;;;;;;;17.39;56.26;99008.59;4980066;28;20038;-83
2022/06/25 10:59:41;;;;;;;1.70;1.10;;;;;;;17.87;54.83;98981.38;4982029;28;20042;-84
2022/06/25 11:02:11;;;;;;;2.00;1.20;;;;;;;17.95;54.38;98997.16;4964324;28;20137;-84
2022/06/25 11:04:38;;;;;;;2.67;1.10;;;;;;;17.84;55.25;99006.38;4983268;28;20038;-87
2022/06/25 11:07:08;;;;;;;1.35;0.93;;;;;;;17.63;54.40;99010.88;4987775;28;20030;-89
2022/06/25 11:09:34;;;;;;;1.35;1.20;;;;;;;17.40;56.33;99015.63;4970632;28;20642;-88
2022/06/25 11:12:00;;;;;;;2.40;0.98;;;;;;;17.21;55.95;99009.00;4968239;28;20364;-86
2022/06/25 11:14:26;;;;;;;1.95;1.10;;;;;;;16.38;57.96;98979.56;4956533;28;20062;-90
2022/06/25 11:16:53;;;;;;;1.50;0.98;;;;;;;16.20;59.10;98995.13;4988481;28;20038;-82
2022/06/25 11:19:22;;;;;;;1.90;1.05;;;;;;;15.91;60.50;98999.97;4963731;28;20034;-80
2022/06/25 11:21:48;;;;;;;2.60;1.17;;;;;;;16.29;58.91;99005.50;4972252;28;20034;-82
2022/06/25 11:24:21;;;;;;;3.03;1.00;;;;;;;17.10;57.30;99000.81;4975936;28;20039;-81
2022/06/25 11:29:42;;;;;;;2.65;1.70;;;;;;;18.76;50.74;98982.06;4984078;28;20483;-85
2022/06/25 11:32:08;;;;;;;4.60;1.65;;;;;;;19.01;50.42;98983.94;4985935;28;22012;-82
2022/06/25 11:34:36;;;;;;;1.50;0.93;;;;;;;19.09;50.25;98991.56;4976894;28;20640;-84
2022/06/25 11:37:05;;;;;;;2.25;0.98;;;;;;;19.03;50.86;98981.78;4987492;28;20031;-85
2022/06/25 11:39:31;;;;;;;1.15;0.90;;;;;;;18.48;51.07;98980.66;4954821;28;20527;-86
2022/06/25 11:41:58;;;;;;;3.80;0.93;;;;;;;17.63;53.28;98973.63;4981696;28;20034;-82
2022/06/25 11:44:24;;;;;;;2.65;1.10;;;;;;;17.19;56.58;98973.97;4983013;28;20458;-80
2022/06/25 11:46:52;;;;;;;1.42;0.80;;;;;;;16.88;56.67;98975.66;4987093;28;20082;-81
2022/06/25 11:49:20;;;;;;;3.85;1.20;;;;;;;16.77;56.36;98971.19;4956467;28;20443;-81
2022/06/25 11:51:48;;;;;;;2.50;1.13;;;;;;;16.77;55.73;98971.19;4989520;28;20066;-81
2022/06/25 11:54:24;;;;;;;2.78;1.10;;;;;;;16.91;54.56;98967.81;4968374;28;20033;-82
2022/06/25 11:56:53;;;;;;;3.20;1.20;;;;;;;16.96;54.78;98972.44;4986696;28;20034;-83
2022/06/25 11:59:23;;;;;;;4.28;1.00;;;;;;;17.00;54.29;98965.44;4987006;28;20026;-82